createdAt,value
2023-10-22T00:00:26.799Z,0.2
2023-10-22T00:01:35.490Z,0.2
2023-10-22T00:02:44.235Z,1
2023-10-22T00:03:53.059Z,0.7
2023-10-22T00:05:02.540Z,0.5
2023-10-22T00:06:12.235Z,0.6
2023-10-22T00:07:21.052Z,0.8
2023-10-22T00:08:28.797Z,0.6
2023-10-22T00:09:38.490Z,0.5
2023-10-22T00:10:47.192Z,0.5
2023-10-22T00:11:55.873Z,0.4
2023-10-22T00:13:05.533Z,0.3
2023-10-22T00:14:15.211Z,0.2
2023-10-22T00:15:23.941Z,0.8
2023-10-22T00:16:32.651Z,0.9
2023-10-22T00:17:40.373Z,0.7
2023-10-22T00:18:50.059Z,0.6
2023-10-22T00:19:58.704Z,0.4
2023-10-22T00:21:06.412Z,0.4
2023-10-22T00:22:16.090Z,0.5
2023-10-22T00:23:25.825Z,0.5
2023-10-22T00:24:34.567Z,0.6
2023-10-22T00:25:43.180Z,0.9
2023-10-22T00:26:50.888Z,0.7
2023-10-22T00:28:00.516Z,0.5
2023-10-22T00:29:10.218Z,0.3
2023-10-22T00:30:17.926Z,0.4
2023-10-22T00:31:27.626Z,0.3
2023-10-22T00:32:37.377Z,0.3
2023-10-22T00:33:46.093Z,0.4
2023-10-22T00:34:54.613Z,0.4
2023-10-22T00:36:02.325Z,0.5
2023-10-22T00:37:11.963Z,0.6
2023-10-22T00:38:20.620Z,0.5
2023-10-22T00:39:29.329Z,0.4
2023-10-22T00:40:39.001Z,0.7
2023-10-22T00:41:48.744Z,1
2023-10-22T00:42:58.583Z,1.4
2023-10-22T00:44:08.231Z,0.9
2023-10-22T00:45:15.915Z,0.6
2023-10-22T00:46:26.595Z,0.7
2023-10-22T00:47:36.281Z,0.7
2023-10-22T00:48:45.006Z,0.8
2023-10-22T00:49:54.648Z,0.5
2023-10-22T00:51:04.377Z,0.6
2023-10-22T00:52:13.039Z,0.4
2023-10-22T00:53:22.740Z,0.5
2023-10-22T00:54:30.397Z,0.7
2023-10-22T00:55:40.095Z,0.6
2023-10-22T00:56:50.065Z,0.6
2023-10-22T00:57:58.627Z,0.5
2023-10-22T00:59:08.308Z,0.5
2023-10-22T01:00:17.011Z,0.5
2023-10-22T01:01:25.714Z,0.5
2023-10-22T01:02:35.507Z,0.8
2023-10-22T01:03:44.165Z,0.9
2023-10-22T01:04:53.781Z,0.3
2023-10-22T01:06:02.470Z,0.6
2023-10-22T01:07:11.122Z,0.4
2023-10-22T01:08:19.826Z,0.6
2023-10-22T01:09:28.623Z,0.4
2023-10-22T01:10:37.186Z,0.5
2023-10-22T01:11:46.921Z,0.3
2023-10-22T01:12:54.662Z,0.5
2023-10-22T01:14:04.355Z,0.6
2023-10-22T01:15:13.119Z,0.5
2023-10-22T01:16:20.754Z,0.5
2023-10-22T01:17:30.445Z,0.3
2023-10-22T01:18:40.102Z,0.4
2023-10-22T01:19:49.736Z,0.3
2023-10-22T01:20:58.429Z,0.3
2023-10-22T01:22:07.111Z,0.4
2023-10-22T01:23:16.807Z,0.5
2023-10-22T01:24:25.471Z,0.8
2023-10-22T01:25:35.168Z,0.4
2023-10-22T01:26:43.902Z,0.3
2023-10-22T01:27:52.622Z,0.5
2023-10-22T01:29:01.317Z,0.6
2023-10-22T01:30:11.027Z,0.6
2023-10-22T01:31:18.763Z,0.7
2023-10-22T01:32:28.413Z,0.5
2023-10-22T01:33:37.099Z,0.6
2023-10-22T01:34:45.748Z,0.5
2023-10-22T01:35:55.472Z,0.6
2023-10-22T01:37:04.208Z,0.6
2023-10-22T01:38:12.874Z,0.3
2023-10-22T01:39:21.595Z,0.6
2023-10-22T01:40:30.227Z,0.7
2023-10-22T01:41:38.900Z,0.8
2023-10-22T01:42:47.581Z,0.5
2023-10-22T01:43:57.248Z,0.4
2023-10-22T01:45:07.005Z,0.5
2023-10-22T01:46:15.654Z,0.4
2023-10-22T01:47:25.389Z,0.4
2023-10-22T01:48:35.028Z,0.5
2023-10-22T01:49:43.707Z,0.6
2023-10-22T01:50:53.403Z,0.4
2023-10-22T01:52:02.040Z,0.4
2023-10-22T01:53:10.689Z,0.4
2023-10-22T01:54:20.396Z,0.6
2023-10-22T01:55:29.105Z,0.5
2023-10-22T01:56:38.865Z,0.5
2023-10-22T01:57:47.475Z,0.4
2023-10-22T01:58:56.167Z,0.3
2023-10-22T02:00:04.845Z,0.6
2023-10-22T02:01:13.518Z,0.7
2023-10-22T02:02:23.215Z,0.9
2023-10-22T02:03:32.962Z,0.5
2023-10-22T02:04:42.562Z,0.4
2023-10-22T02:05:52.287Z,0.5
2023-10-22T02:07:01.958Z,0.7
2023-10-22T02:08:11.636Z,0.7
2023-10-22T02:09:20.324Z,0.6
2023-10-22T02:10:27.988Z,0.5
2023-10-22T02:11:37.776Z,0.5
2023-10-22T02:12:46.346Z,0.6
2023-10-22T02:13:56.028Z,0.6
2023-10-22T02:15:05.728Z,0.5
2023-10-22T02:16:14.364Z,0.5
2023-10-22T02:17:24.067Z,0.5
2023-10-22T02:18:32.821Z,0.4
2023-10-22T02:19:40.404Z,0.5
2023-10-22T02:20:50.127Z,0.5
2023-10-22T02:21:58.780Z,0.4
2023-10-22T02:23:06.446Z,0.4
2023-10-22T02:24:16.209Z,0.6
2023-10-22T02:25:24.837Z,0.4
2023-10-22T02:26:33.510Z,0.5
2023-10-22T02:27:42.204Z,0.5
2023-10-22T02:28:49.850Z,0.6
2023-10-22T02:29:59.550Z,0.6
2023-10-22T02:31:09.259Z,0.6
2023-10-22T02:32:17.906Z,0.6
2023-10-22T02:33:27.683Z,0.9
2023-10-22T02:34:37.494Z,0.6
2023-10-22T02:35:47.063Z,0.5
2023-10-22T02:36:56.673Z,0.6
2023-10-22T02:38:05.423Z,0.7
2023-10-22T02:39:15.144Z,0.6
2023-10-22T02:40:23.811Z,0.8
2023-10-22T02:41:31.565Z,0.7
2023-10-22T02:42:41.227Z,0.7
2023-10-22T02:43:50.914Z,0.8
2023-10-22T02:44:59.631Z,0.6
2023-10-22T02:46:08.333Z,0.7
2023-10-22T02:47:18.000Z,0.7
2023-10-22T02:48:27.703Z,0.5
2023-10-22T02:49:36.369Z,0.5
2023-10-22T02:50:44.039Z,0.5
2023-10-22T02:51:53.757Z,0.7
2023-10-22T02:53:02.388Z,0.5
2023-10-22T02:54:11.073Z,0.5
2023-10-22T02:55:19.775Z,0.6
2023-10-22T02:56:28.476Z,0.7
2023-10-22T02:57:38.146Z,0.6
2023-10-22T02:58:46.974Z,0.7
2023-10-22T02:59:55.709Z,0.8
2023-10-22T03:01:05.316Z,0.8
2023-10-22T03:02:14.977Z,0.9
2023-10-22T03:03:23.702Z,1.2
2023-10-22T03:04:33.419Z,0.5
2023-10-22T03:05:40.993Z,0.7
2023-10-22T03:06:50.709Z,0.6
2023-10-22T03:08:00.391Z,0.7
2023-10-22T03:09:09.103Z,0.7
2023-10-22T03:10:18.708Z,0.9
2023-10-22T03:11:28.389Z,0.6
2023-10-22T03:12:38.075Z,0.9
2023-10-22T03:13:46.760Z,0.7
2023-10-22T03:14:54.444Z,0.8
2023-10-22T03:16:04.163Z,0.6
2023-10-22T03:17:12.794Z,0.6
2023-10-22T03:18:21.594Z,0.7
2023-10-22T03:19:31.145Z,0.9
2023-10-22T03:20:39.848Z,0.6
2023-10-22T03:21:48.521Z,0.7
2023-10-22T03:22:57.227Z,0.7
2023-10-22T03:24:05.042Z,0.8
2023-10-22T03:25:14.590Z,0.9
2023-10-22T03:26:23.285Z,0.8
2023-10-22T03:27:30.922Z,1
2023-10-22T03:28:40.624Z,0.9
2023-10-22T03:29:49.339Z,0.9
2023-10-22T03:30:56.996Z,0.7
2023-10-22T03:32:06.656Z,0.8
2023-10-22T03:33:15.385Z,0.8
2023-10-22T03:34:25.117Z,0.7
2023-10-22T03:35:33.824Z,0.9
2023-10-22T03:36:41.524Z,0.8
2023-10-22T03:37:50.202Z,0.9
2023-10-22T03:38:58.974Z,1.2
2023-10-22T03:40:08.678Z,0.9
2023-10-22T03:41:18.315Z,0.9
2023-10-22T03:42:26.977Z,0.7
2023-10-22T03:43:36.726Z,1
2023-10-22T03:44:45.386Z,1.1
2023-10-22T03:45:54.105Z,1.2
2023-10-22T03:47:03.766Z,1
2023-10-22T03:48:12.477Z,1
2023-10-22T03:49:21.157Z,0.7
2023-10-22T03:50:29.815Z,0.9
2023-10-22T03:51:38.490Z,1
2023-10-22T03:52:48.178Z,0.6
2023-10-22T03:53:56.834Z,0.9
2023-10-22T03:55:06.524Z,0.8
2023-10-22T03:56:16.185Z,1.1
2023-10-22T03:57:24.908Z,0.8
2023-10-22T03:58:34.611Z,0.8
2023-10-22T03:59:44.525Z,0.8
2023-10-22T04:00:53.233Z,0.8
2023-10-22T04:02:02.969Z,0.8
2023-10-22T04:03:11.693Z,1
2023-10-22T04:04:21.321Z,0.9
2023-10-22T04:05:29.986Z,1.2
2023-10-22T04:06:39.651Z,0.7
2023-10-22T04:07:49.341Z,0.8
2023-10-22T04:08:58.030Z,1
2023-10-22T04:10:07.696Z,0.7
2023-10-22T04:11:16.399Z,0.7
2023-10-22T04:12:26.108Z,0.7
2023-10-22T04:13:35.782Z,0.8
2023-10-22T04:14:45.463Z,0.7
2023-10-22T04:15:54.118Z,0.8
2023-10-22T04:17:03.787Z,0.7
2023-10-22T04:18:13.536Z,0.7
2023-10-22T04:19:22.161Z,0.8
2023-10-22T04:20:30.836Z,0.6
2023-10-22T04:21:39.559Z,0.6
2023-10-22T04:22:49.245Z,0.6
2023-10-22T04:23:57.938Z,0.8
2023-10-22T04:25:06.720Z,0.9
2023-10-22T04:26:16.392Z,0.8
2023-10-22T04:27:25.070Z,1.2
2023-10-22T04:28:34.762Z,1.1
2023-10-22T04:29:44.469Z,0.8
2023-10-22T04:30:54.137Z,1.1
2023-10-22T04:32:03.792Z,1.1
2023-10-22T04:33:12.624Z,1
2023-10-22T04:34:21.217Z,1.9
2023-10-22T04:35:30.934Z,1
2023-10-22T04:36:39.608Z,1.1
2023-10-22T04:37:48.373Z,0.9
2023-10-22T04:38:58.139Z,1
2023-10-22T04:40:04.756Z,1
2023-10-22T04:41:14.441Z,0.8
2023-10-22T04:42:24.146Z,0.9
2023-10-22T04:43:33.837Z,1
2023-10-22T04:44:43.550Z,1.2
2023-10-22T04:45:52.177Z,1
2023-10-22T04:47:00.873Z,0.9
2023-10-22T04:48:09.651Z,1
2023-10-22T04:49:17.263Z,1.2
2023-10-22T04:50:27.001Z,1
2023-10-22T04:51:34.696Z,1
2023-10-22T04:52:43.337Z,1.1
2023-10-22T04:53:52.037Z,1.2
2023-10-22T04:54:59.778Z,1.3
2023-10-22T04:56:09.390Z,1
2023-10-22T04:57:18.103Z,1
2023-10-22T04:58:27.770Z,1.1
2023-10-22T04:59:37.474Z,0.9
2023-10-22T05:00:46.345Z,1.2
2023-10-22T05:01:54.026Z,1.1
2023-10-22T05:03:03.807Z,1.3
2023-10-22T05:04:13.486Z,1.1
2023-10-22T05:05:22.135Z,1.1
2023-10-22T05:06:31.776Z,0.8
2023-10-22T05:07:39.444Z,0.8
2023-10-22T05:08:49.202Z,0.9
2023-10-22T05:09:58.847Z,0.8
2023-10-22T05:11:07.553Z,1.2
2023-10-22T05:12:17.251Z,0.8
2023-10-22T05:13:26.919Z,0.8
2023-10-22T05:14:36.712Z,1
2023-10-22T05:15:46.269Z,1.4
2023-10-22T05:16:53.997Z,1
2023-10-22T05:18:03.696Z,0.8
2023-10-22T05:19:13.356Z,1.1
2023-10-22T05:20:22.046Z,1
2023-10-22T05:21:31.731Z,0.9
2023-10-22T05:22:41.392Z,0.8
2023-10-22T05:23:50.115Z,1.1
2023-10-22T05:25:00.101Z,1.2
2023-10-22T05:26:09.470Z,1
2023-10-22T05:27:18.329Z,1.1
2023-10-22T05:28:27.879Z,0.9
2023-10-22T05:29:36.551Z,0.6
2023-10-22T05:30:46.224Z,1
2023-10-22T05:31:54.909Z,0.9
2023-10-22T05:33:04.650Z,1
2023-10-22T05:34:14.315Z,0.8
2023-10-22T05:35:23.975Z,0.7
2023-10-22T05:36:33.631Z,0.7
2023-10-22T05:37:42.306Z,0.6
2023-10-22T05:38:50.998Z,0.7
2023-10-22T05:40:00.682Z,0.5
2023-10-22T05:41:09.421Z,0.6
2023-10-22T05:42:19.134Z,0.8
2023-10-22T05:43:27.859Z,0.7
2023-10-22T05:44:36.705Z,0.9
2023-10-22T05:45:46.287Z,0.6
2023-10-22T05:46:55.000Z,0.5
2023-10-22T05:48:02.754Z,0.5
2023-10-22T05:49:12.386Z,0.6
2023-10-22T05:50:22.170Z,0.6
2023-10-22T05:51:29.992Z,0.5
2023-10-22T05:52:38.687Z,0.7
2023-10-22T05:53:47.365Z,0.7
2023-10-22T05:54:57.068Z,0.6
2023-10-22T05:56:04.700Z,0.8
2023-10-22T05:57:14.442Z,0.5
2023-10-22T05:58:23.050Z,0.5
2023-10-22T05:59:32.723Z,0.5
2023-10-22T06:00:42.437Z,0.4
2023-10-22T06:01:52.204Z,0.3
2023-10-22T06:03:00.887Z,0.4
2023-10-22T06:04:10.631Z,0.6
2023-10-22T06:05:24.029Z,0.5
2023-10-22T06:06:30.825Z,0.3
2023-10-22T06:07:39.557Z,0.4
2023-10-22T06:08:48.266Z,0.4
2023-10-22T06:09:57.907Z,0.7
2023-10-22T06:11:06.623Z,0.8
2023-10-22T06:12:15.252Z,0.7
2023-10-22T06:13:23.916Z,0.7
2023-10-22T06:14:32.577Z,0.7
2023-10-22T06:15:42.251Z,0.7
2023-10-22T06:16:51.908Z,1.1
2023-10-22T06:17:59.658Z,1.2
2023-10-22T06:19:09.285Z,1.2
2023-10-22T06:20:18.941Z,1.3
2023-10-22T06:21:28.651Z,1.2
2023-10-22T06:22:38.319Z,1.3
2023-10-22T06:23:47.026Z,1.2
2023-10-22T06:24:56.688Z,1
2023-10-22T06:26:05.364Z,1.1
2023-10-22T06:27:13.169Z,1.2
2023-10-22T06:28:21.754Z,1
2023-10-22T06:29:30.414Z,1
2023-10-22T06:30:39.103Z,1
2023-10-22T06:31:47.803Z,0.8
2023-10-22T06:32:56.609Z,0.8
2023-10-22T06:34:06.229Z,1.3
2023-10-22T06:35:14.789Z,0.8
2023-10-22T06:36:24.555Z,0.7
2023-10-22T06:37:34.203Z,0.7
2023-10-22T06:38:42.842Z,0.6
2023-10-22T06:39:51.531Z,0.5
2023-10-22T06:41:00.212Z,0.7
2023-10-22T06:42:07.880Z,0.7
2023-10-22T06:43:17.522Z,0.7
2023-10-22T06:44:27.237Z,0.9
2023-10-22T06:45:35.884Z,0.7
2023-10-22T06:46:44.624Z,0.8
2023-10-22T06:47:54.263Z,1
2023-10-22T06:49:03.892Z,0.9
2023-10-22T06:50:12.560Z,1.3
2023-10-22T06:51:20.214Z,0.7
2023-10-22T06:52:29.868Z,0.4
2023-10-22T06:53:39.537Z,0.9
2023-10-22T06:54:47.179Z,0.4
2023-10-22T06:55:56.841Z,0.7
2023-10-22T06:57:06.577Z,1.3
2023-10-22T06:58:16.226Z,0.4
2023-10-22T06:59:24.878Z,1
2023-10-22T07:00:32.589Z,1
2023-10-22T07:01:43.245Z,0.6
2023-10-22T07:02:52.924Z,0.8
2023-10-22T07:04:04.536Z,1
2023-10-22T07:05:13.203Z,0.8
2023-10-22T07:06:21.887Z,0.5
2023-10-22T07:07:30.539Z,0.4
2023-10-22T07:08:39.202Z,0.6
2023-10-22T07:09:48.052Z,0.5
2023-10-22T07:10:57.570Z,0.4
2023-10-22T07:12:05.270Z,0.4
2023-10-22T07:13:14.913Z,0.3
2023-10-22T07:14:24.625Z,0.4
2023-10-22T07:15:34.316Z,0.4
2023-10-22T07:16:44.065Z,0.4
2023-10-22T07:17:52.739Z,0.4
2023-10-22T07:19:01.415Z,0.4
2023-10-22T07:20:11.078Z,0.4
2023-10-22T07:21:19.825Z,0.4
2023-10-22T07:22:27.467Z,0.4
2023-10-22T07:23:37.068Z,0.4
2023-10-22T07:24:45.762Z,0.4
2023-10-22T07:25:55.503Z,0.5
2023-10-22T07:27:05.210Z,0.7
2023-10-22T07:28:12.836Z,0.5
2023-10-22T07:29:22.498Z,0.7
2023-10-22T07:30:32.198Z,0.5
2023-10-22T07:31:40.914Z,0.6
2023-10-22T07:32:50.594Z,0.7
2023-10-22T07:33:59.202Z,0.6
2023-10-22T07:35:07.981Z,0.8
2023-10-22T07:36:17.610Z,0.6
2023-10-22T07:37:26.249Z,0.9
2023-10-22T07:38:35.908Z,0.6
2023-10-22T07:39:44.571Z,0.6
2023-10-22T07:40:53.279Z,0.7
2023-10-22T07:42:03.005Z,0.6
2023-10-22T07:43:12.673Z,0.7
2023-10-22T07:44:22.340Z,0.7
2023-10-22T07:45:31.029Z,0.8
2023-10-22T07:46:38.684Z,0.8
2023-10-22T07:47:48.415Z,0.6
2023-10-22T07:48:58.045Z,1.3
2023-10-22T07:50:06.752Z,0.8
2023-10-22T07:51:16.520Z,0.7
2023-10-22T07:52:25.145Z,0.7
2023-10-22T07:53:34.981Z,0.8
2023-10-22T07:54:44.725Z,0.9
2023-10-22T07:55:54.388Z,1
2023-10-22T07:57:03.081Z,0.8
2023-10-22T07:58:10.769Z,0.8
2023-10-22T07:59:20.386Z,1.2
2023-10-22T08:00:29.066Z,0.9
2023-10-22T08:01:37.958Z,1.1
2023-10-22T08:02:47.748Z,0.9
2023-10-22T08:03:55.387Z,1
2023-10-22T08:05:04.040Z,0.8
2023-10-22T08:06:13.751Z,0.9
2023-10-22T08:07:21.395Z,1
2023-10-22T08:08:31.042Z,1
2023-10-22T08:09:39.698Z,0.9
2023-10-22T08:10:48.392Z,0.9
2023-10-22T08:11:58.107Z,0.9
2023-10-22T08:13:07.772Z,1
2023-10-22T08:14:17.472Z,1.2
2023-10-22T08:15:27.169Z,1
2023-10-22T08:16:34.772Z,0.9
2023-10-22T08:17:46.154Z,0.9
2023-10-22T08:18:54.174Z,0.8
2023-10-22T08:20:02.829Z,1
2023-10-22T08:21:11.549Z,1.1
2023-10-22T08:22:21.156Z,1
2023-10-22T08:23:29.810Z,0.7
2023-10-22T08:24:38.756Z,0.8
2023-10-22T08:25:46.178Z,0.5
2023-10-22T08:26:54.884Z,0.4
2023-10-22T08:28:03.526Z,0.2
2023-10-22T08:29:13.426Z,0.9
2023-10-22T08:30:23.079Z,0.4
2023-10-22T08:31:31.703Z,0.7
2023-10-22T08:32:40.407Z,1.3
2023-10-22T08:33:49.083Z,1.8
2023-10-22T08:34:57.730Z,0.4
2023-10-22T08:36:07.395Z,1.7
2023-10-22T08:37:17.118Z,0.9
2023-10-22T08:38:24.794Z,0.4
2023-10-22T08:39:34.492Z,0.5
2023-10-22T08:40:44.138Z,0.4
2023-10-22T08:41:52.872Z,0.6
2023-10-22T08:43:02.543Z,0.4
2023-10-22T08:44:11.236Z,0.6
2023-10-22T08:45:20.957Z,0.4
2023-10-22T08:46:29.688Z,0.3
2023-10-22T08:47:38.404Z,0.1
2023-10-22T08:48:47.199Z,0.6
2023-10-22T08:49:56.814Z,0.1
2023-10-22T08:51:06.547Z,0.2
2023-10-22T08:52:15.202Z,0.4
2023-10-22T08:53:22.862Z,0.2
2023-10-22T08:54:32.583Z,0.6
2023-10-22T08:55:42.224Z,0.6
2023-10-22T08:56:50.912Z,0.6
2023-10-22T08:58:00.563Z,0.7
2023-10-22T08:59:09.216Z,0.5
2023-10-22T09:00:17.982Z,0.6
2023-10-22T09:01:27.666Z,0.4
2023-10-22T09:02:35.590Z,0.4
2023-10-22T09:03:45.366Z,0.3
2023-10-22T09:04:53.922Z,0.2
2023-10-22T09:06:01.700Z,0.2
2023-10-22T09:07:11.330Z,0.3
2023-10-22T09:08:21.018Z,0.2
2023-10-22T09:09:29.717Z,0.2
2023-10-22T09:10:38.432Z,0.2
2023-10-22T09:11:47.653Z,0.6
2023-10-22T09:12:55.895Z,0.3
2023-10-22T09:14:05.569Z,0.2
2023-10-22T09:15:13.289Z,0.3
2023-10-22T09:16:23.048Z,0.2
2023-10-22T09:17:32.793Z,0.1
2023-10-22T09:18:42.488Z,0.2
2023-10-22T09:19:52.066Z,0.3
2023-10-22T09:20:59.809Z,0.1
2023-10-22T09:22:09.403Z,0.4
2023-10-22T09:23:18.102Z,0.2
2023-10-22T09:24:25.815Z,0
2023-10-22T09:25:35.515Z,0.1
2023-10-22T09:26:44.197Z,0
2023-10-22T09:27:52.862Z,0
2023-10-22T09:29:01.581Z,0
2023-10-22T09:30:09.270Z,0
2023-10-22T09:31:17.965Z,0.1
2023-10-22T09:32:30.026Z,0.2
2023-10-22T09:33:36.444Z,0.3
2023-10-22T09:34:46.065Z,0.1
2023-10-22T09:35:54.736Z,0.9
2023-10-22T09:37:04.396Z,0
2023-10-22T09:38:14.043Z,0.1
2023-10-22T09:39:22.777Z,0.1
2023-10-22T09:40:32.415Z,0.1
2023-10-22T09:41:42.104Z,0
2023-10-22T09:42:49.829Z,0
2023-10-22T09:43:59.416Z,0.5
2023-10-22T09:45:08.125Z,0
2023-10-22T09:46:16.802Z,0
2023-10-22T09:47:25.529Z,0
2023-10-22T09:48:33.170Z,0.1
2023-10-22T09:49:42.864Z,0.2
2023-10-22T09:50:51.682Z,0
2023-10-22T09:52:01.295Z,0
2023-10-22T09:53:10.973Z,0
2023-10-22T09:54:19.670Z,0
2023-10-22T09:55:29.345Z,0.1
2023-10-22T09:56:38.085Z,0
2023-10-22T09:57:46.822Z,0
2023-10-22T09:58:56.550Z,0
2023-10-22T10:00:05.256Z,0.2
2023-10-22T10:01:15.019Z,0.2
2023-10-22T10:02:24.665Z,0
2023-10-22T10:03:34.550Z,0
2023-10-22T10:04:44.184Z,0
2023-10-22T10:05:53.878Z,0.2
2023-10-22T10:07:03.584Z,0.1
2023-10-22T10:08:13.228Z,0
2023-10-22T10:09:22.936Z,0
2023-10-22T10:10:32.544Z,0.1
2023-10-22T10:11:41.241Z,0.1
2023-10-22T10:12:49.912Z,0
2023-10-22T10:13:59.627Z,0.1
2023-10-22T10:15:09.318Z,0.2
2023-10-22T10:16:18.988Z,0.3
2023-10-22T10:17:27.714Z,0
2023-10-22T10:18:36.398Z,0
2023-10-22T10:19:46.065Z,0
2023-10-22T10:20:55.771Z,0
2023-10-22T10:22:03.459Z,0.4
2023-10-22T10:23:13.146Z,0
2023-10-22T10:24:22.813Z,0.1
2023-10-22T10:25:32.518Z,0.1
2023-10-22T10:26:41.248Z,0.2
2023-10-22T10:27:50.027Z,0
2023-10-22T10:29:00.768Z,0
2023-10-22T10:30:09.481Z,0.1
2023-10-22T10:31:17.155Z,0.1
2023-10-22T10:32:26.812Z,0
2023-10-22T10:33:35.613Z,0
2023-10-22T10:34:46.710Z,0.1
2023-10-22T10:35:54.941Z,0.1
2023-10-22T10:37:03.603Z,0
2023-10-22T10:38:13.300Z,0.1
2023-10-22T10:39:23.018Z,0
2023-10-22T10:40:30.604Z,0
2023-10-22T10:41:40.286Z,0.2
2023-10-22T10:42:48.982Z,0
2023-10-22T10:43:57.644Z,0
2023-10-22T10:45:06.315Z,0
2023-10-22T10:46:14.004Z,0
2023-10-22T10:47:23.796Z,0.2
2023-10-22T10:48:33.471Z,0.1
2023-10-22T10:49:41.120Z,0.1
2023-10-22T10:50:50.837Z,0.1
2023-10-22T10:52:00.484Z,0.1
2023-10-22T10:53:10.166Z,0.2
2023-10-22T10:54:19.170Z,0.4
2023-10-22T10:55:27.600Z,0
2023-10-22T10:56:36.343Z,0.1
2023-10-22T10:57:45.010Z,0
2023-10-22T10:58:52.669Z,0.1
2023-10-22T11:00:02.407Z,0
2023-10-22T11:01:11.112Z,0
2023-10-22T11:02:20.735Z,0
2023-10-22T11:03:29.590Z,0.1
2023-10-22T11:04:38.431Z,0
2023-10-22T11:05:47.958Z,0
2023-10-22T11:07:01.324Z,0
2023-10-22T11:08:06.391Z,0.1
2023-10-22T11:09:15.075Z,0
2023-10-22T11:10:23.789Z,0
2023-10-22T11:11:33.531Z,0.6
2023-10-22T11:12:43.156Z,0.1
2023-10-22T11:13:51.853Z,0
2023-10-22T11:15:01.549Z,0
2023-10-22T11:16:10.191Z,0.1
2023-10-22T11:17:19.893Z,0
2023-10-22T11:18:28.570Z,0
2023-10-22T11:19:37.478Z,0.2
2023-10-22T11:20:46.884Z,0
2023-10-22T11:21:56.591Z,0
2023-10-22T11:23:04.284Z,0
2023-10-22T11:24:14.007Z,0.1
2023-10-22T11:25:23.713Z,0
2023-10-22T11:26:32.466Z,0
2023-10-22T11:27:42.182Z,0.1
2023-10-22T11:28:50.843Z,0
2023-10-22T11:30:01.608Z,0.1
2023-10-22T11:31:11.267Z,0
2023-10-22T11:32:19.955Z,0.1
2023-10-22T11:33:29.929Z,0
2023-10-22T11:34:38.495Z,0
2023-10-22T11:35:47.126Z,0
2023-10-22T11:36:55.796Z,0
2023-10-22T11:38:04.535Z,0.1
2023-10-22T11:39:13.255Z,0
2023-10-22T11:40:23.851Z,0.1
2023-10-22T11:41:33.593Z,0
2023-10-22T11:42:42.196Z,0
2023-10-22T11:43:50.894Z,0.1
2023-10-22T11:44:58.564Z,0
2023-10-22T11:46:07.213Z,0
2023-10-22T11:47:15.857Z,0.1
2023-10-22T11:48:25.846Z,0
2023-10-22T11:49:34.303Z,0.1
2023-10-22T11:50:43.014Z,0.2
2023-10-22T11:51:51.715Z,0
2023-10-22T11:53:01.385Z,0.1
2023-10-22T11:54:11.113Z,0
2023-10-22T11:55:35.294Z,0
2023-10-22T11:56:28.425Z,0.1
2023-10-22T11:57:38.180Z,0.1
2023-10-22T11:58:46.848Z,0.2
2023-10-22T11:59:56.653Z,0
2023-10-22T12:01:06.317Z,0.1
2023-10-22T12:02:14.055Z,0.1
2023-10-22T12:03:23.847Z,0
2023-10-22T12:04:32.615Z,0.2
2023-10-22T12:05:40.330Z,0.7
2023-10-22T12:06:50.099Z,0.1
2023-10-22T12:07:58.757Z,0.1
2023-10-22T12:09:09.423Z,0
2023-10-22T12:10:19.294Z,0
2023-10-22T12:11:28.810Z,0.2
2023-10-22T12:12:38.544Z,0.2
2023-10-22T12:13:48.215Z,0.1
2023-10-22T12:14:56.883Z,0.1
2023-10-22T12:16:06.600Z,0.1
2023-10-22T12:17:15.278Z,0.1
2023-10-22T12:18:26.054Z,0.1
2023-10-22T12:19:34.616Z,0.1
2023-10-22T12:20:43.330Z,0.2
2023-10-22T12:21:53.037Z,0.2
2023-10-22T12:23:01.754Z,0.3
2023-10-22T12:24:20.636Z,0.1
2023-10-22T12:25:22.106Z,0
2023-10-22T12:26:30.785Z,0
2023-10-22T12:27:39.515Z,0.1
2023-10-22T12:28:49.217Z,0.1
2023-10-22T12:29:56.955Z,0.2
2023-10-22T12:31:06.641Z,0.1
2023-10-22T12:32:16.319Z,0.1
2023-10-22T12:33:25.013Z,0.1
2023-10-22T12:34:34.709Z,0
2023-10-22T12:35:43.472Z,0.1
2023-10-22T12:36:53.163Z,0.1
2023-10-22T12:38:02.842Z,0.2
2023-10-22T12:39:11.558Z,0.3
2023-10-22T12:40:21.263Z,0.4
2023-10-22T12:41:29.908Z,0.1
2023-10-22T12:42:38.615Z,0.1
2023-10-22T12:43:48.274Z,0.1
2023-10-22T12:44:56.954Z,0.1
2023-10-22T12:46:05.704Z,0.1
2023-10-22T12:47:15.433Z,0.1
2023-10-22T12:48:23.012Z,0
2023-10-22T12:49:32.649Z,0
2023-10-22T12:50:41.322Z,0.1
2023-10-22T12:51:49.003Z,0.1
2023-10-22T12:52:58.644Z,0.2
2023-10-22T12:54:07.414Z,0.1
2023-10-22T12:55:16.061Z,0.2
2023-10-22T12:56:25.733Z,0.2
2023-10-22T12:57:34.521Z,0.1
2023-10-22T12:58:44.142Z,0.2
2023-10-22T12:59:52.923Z,0.2
2023-10-22T13:01:02.560Z,0.3
2023-10-22T13:02:12.380Z,0.2
2023-10-22T13:03:22.100Z,0.1
2023-10-22T13:04:32.048Z,0.1
2023-10-22T13:05:41.611Z,0
2023-10-22T13:06:51.364Z,0.1
2023-10-22T13:08:01.046Z,0.2
2023-10-22T13:09:09.729Z,0.2
2023-10-22T13:10:17.379Z,0.2
2023-10-22T13:11:27.038Z,0.2
2023-10-22T13:12:35.757Z,0.3
2023-10-22T13:13:44.431Z,0.4
2023-10-22T13:14:53.177Z,0.3
2023-10-22T13:16:01.010Z,0.4
2023-10-22T13:17:10.664Z,0.2
2023-10-22T13:18:20.377Z,0
2023-10-22T13:19:30.012Z,0.1
2023-10-22T13:20:39.714Z,0.2
2023-10-22T13:21:48.552Z,0.1
2023-10-22T13:22:57.170Z,0.1
2023-10-22T13:24:05.880Z,0.2
2023-10-22T13:25:15.524Z,0.1
2023-10-22T13:26:25.183Z,0
2023-10-22T13:27:33.864Z,0.2
2023-10-22T13:28:43.506Z,0.1
2023-10-22T13:29:52.219Z,0.2
2023-10-22T13:31:01.884Z,0.2
2023-10-22T13:32:11.612Z,0.1
2023-10-22T13:33:21.365Z,0.1
2023-10-22T13:34:31.031Z,0.1
2023-10-22T13:35:40.730Z,0.4
2023-10-22T13:36:50.426Z,0.1
2023-10-22T13:37:59.049Z,0.1
2023-10-22T13:39:08.816Z,0.1
2023-10-22T13:40:17.517Z,0.1
2023-10-22T13:41:26.230Z,0.1
2023-10-22T13:42:35.996Z,0.2
2023-10-22T13:43:45.644Z,0.2
2023-10-22T13:44:55.365Z,0.2
2023-10-22T13:46:05.025Z,0.1
2023-10-22T13:47:14.708Z,0.1
2023-10-22T13:48:23.548Z,0.1
2023-10-22T13:49:31.169Z,0.1
2023-10-22T13:50:40.816Z,0.2
2023-10-22T13:51:49.501Z,0.1
2023-10-22T13:52:59.179Z,0.2
2023-10-22T13:54:08.870Z,0
2023-10-22T13:55:17.539Z,0.1
2023-10-22T13:56:27.188Z,0.2
2023-10-22T13:57:35.901Z,0.2
2023-10-22T13:58:45.550Z,0
2023-10-22T13:59:55.233Z,0.5
2023-10-22T14:01:03.936Z,0
2023-10-22T14:02:12.646Z,0
2023-10-22T14:03:21.523Z,0
2023-10-22T14:04:29.459Z,0
2023-10-22T14:05:39.481Z,0
2023-10-22T14:06:48.215Z,0
2023-10-22T14:07:56.883Z,0.1
2023-10-22T14:09:06.694Z,0
2023-10-22T14:10:15.440Z,0.1
2023-10-22T14:11:25.073Z,0
2023-10-22T14:12:33.813Z,0.1
2023-10-22T14:13:41.554Z,0
2023-10-22T14:14:51.298Z,0.1
2023-10-22T14:15:59.129Z,0
2023-10-22T14:17:06.895Z,0.1
2023-10-22T14:18:17.604Z,0
2023-10-22T14:19:27.259Z,0
2023-10-22T14:20:37.070Z,0.1
2023-10-22T14:21:46.716Z,0.3
2023-10-22T14:22:55.417Z,0.3
2023-10-22T14:24:05.155Z,0.1
2023-10-22T14:25:14.836Z,0
2023-10-22T14:26:24.523Z,0
2023-10-22T14:27:34.259Z,0.1
2023-10-22T14:28:44.029Z,0.1
2023-10-22T14:29:53.712Z,0
2023-10-22T14:31:01.420Z,0
2023-10-22T14:32:09.097Z,0
2023-10-22T14:33:18.910Z,0
2023-10-22T14:34:29.885Z,0.1
2023-10-22T14:35:38.289Z,0
2023-10-22T14:36:47.956Z,0
2023-10-22T14:37:57.653Z,0.1
2023-10-22T14:39:07.352Z,0.1
2023-10-22T14:40:17.084Z,0
2023-10-22T14:41:26.736Z,0
2023-10-22T14:42:36.478Z,0
2023-10-22T14:43:46.114Z,0
2023-10-22T14:44:53.804Z,0.2
2023-10-22T14:46:03.524Z,0.2
2023-10-22T14:47:12.183Z,0.3
2023-10-22T14:48:20.895Z,0
2023-10-22T14:49:29.536Z,0.2
2023-10-22T14:50:38.193Z,0.1
2023-10-22T14:51:47.879Z,0.2
2023-10-22T14:52:56.525Z,0
2023-10-22T14:54:05.232Z,0
2023-10-22T14:55:14.895Z,0
2023-10-22T14:56:24.583Z,0
2023-10-22T14:57:33.342Z,0.1
2023-10-22T14:58:42.943Z,0.2
2023-10-22T14:59:50.597Z,0.1
2023-10-22T15:01:00.280Z,0.3
2023-10-22T15:02:09.957Z,0.1
2023-10-22T15:03:19.796Z,0.1
2023-10-22T15:04:29.621Z,0.1
2023-10-22T15:05:39.646Z,0.1
2023-10-22T15:06:48.278Z,0.2
2023-10-22T15:07:57.963Z,0.1
2023-10-22T15:09:07.658Z,0.1
2023-10-22T15:10:17.319Z,0.1
2023-10-22T15:11:24.991Z,0.1
2023-10-22T15:12:34.760Z,0.4
2023-10-22T15:13:44.379Z,0.3
2023-10-22T15:14:54.059Z,0.5
2023-10-22T15:16:03.761Z,0.4
2023-10-22T15:17:11.400Z,0.4
2023-10-22T15:18:19.144Z,0.8
2023-10-22T15:19:28.753Z,0.3
2023-10-22T15:20:37.420Z,0.2
2023-10-22T15:21:46.092Z,0.2
2023-10-22T15:22:55.770Z,1.3
2023-10-22T15:24:05.467Z,0.1
2023-10-22T15:25:14.128Z,0.1
2023-10-22T15:26:22.864Z,0
2023-10-22T15:27:30.602Z,0.1
2023-10-22T15:28:40.205Z,0
2023-10-22T15:29:49.923Z,0.4
2023-10-22T15:30:57.659Z,0.1
2023-10-22T15:32:07.344Z,0.8
2023-10-22T15:33:16.210Z,0.2
2023-10-22T15:34:25.682Z,0.2
2023-10-22T15:35:36.386Z,0.1
2023-10-22T15:36:44.046Z,0.1
2023-10-22T15:37:53.707Z,0.2
2023-10-22T15:39:02.378Z,0.4
2023-10-22T15:40:11.061Z,0.1
2023-10-22T15:41:21.774Z,0.5
2023-10-22T15:42:31.448Z,0.5
2023-10-22T15:43:41.085Z,0.1
2023-10-22T15:44:49.826Z,0
2023-10-22T15:45:58.468Z,1.6
2023-10-22T15:47:07.135Z,0.2
2023-10-22T15:48:15.988Z,0.2
2023-10-22T15:49:25.600Z,0.2
2023-10-22T15:50:34.340Z,0.6
2023-10-22T15:51:44.012Z,0.1
2023-10-22T15:52:53.750Z,0.1
2023-10-22T15:54:02.470Z,0.2
2023-10-22T15:55:11.333Z,0.2
2023-10-22T15:56:21.098Z,0.2
2023-10-22T15:57:29.809Z,0.2
2023-10-22T15:58:39.503Z,0.2
2023-10-22T15:59:48.278Z,0.2
2023-10-22T16:00:57.928Z,0.5
2023-10-22T16:02:07.608Z,0.8
2023-10-22T16:03:17.324Z,0.3
2023-10-22T16:04:25.978Z,0.1